createdAt,value
2017-10-06T00:01:13.580Z,8.30
2017-10-06T00:03:41.107Z,7.82
2017-10-06T00:06:08.637Z,7.18
2017-10-06T00:08:36.192Z,7.65
2017-10-06T00:11:03.704Z,7.70
2017-10-06T00:13:31.992Z,7.12
2017-10-06T00:16:00.702Z,6.55
2017-10-06T00:18:28.352Z,7.43
2017-10-06T00:20:55.868Z,7.15
2017-10-06T00:23:23.413Z,6.40
2017-10-06T00:25:50.954Z,6.30
2017-10-06T00:28:18.495Z,8.80
2017-10-06T00:30:47.879Z,6.85
2017-10-06T00:33:15.973Z,6.22
2017-10-06T00:35:43.473Z,5.93
2017-10-06T00:38:11.001Z,5.82
2017-10-06T00:40:38.525Z,4.55
2017-10-06T00:43:06.087Z,6.03
2017-10-06T00:45:33.642Z,5.80
2017-10-06T00:48:01.743Z,6.18
2017-10-06T00:50:29.304Z,6.35
2017-10-06T00:52:56.846Z,6.78
2017-10-06T00:55:24.357Z,6.12
2017-10-06T00:57:51.864Z,5.57
2017-10-06T01:00:19.396Z,5.72
2017-10-06T01:02:47.709Z,5.55
2017-10-06T01:05:16.020Z,5.50
2017-10-06T01:07:44.447Z,6.75
2017-10-06T01:10:11.980Z,5.70
2017-10-06T01:12:40.265Z,6.85
2017-10-06T01:15:08.592Z,6.32
2017-10-06T01:17:36.721Z,6.47
2017-10-06T01:20:05.016Z,6.90
2017-10-06T01:22:32.574Z,6.55
2017-10-06T01:25:00.096Z,5.87
2017-10-06T01:27:27.636Z,5.70
2017-10-06T01:29:55.317Z,5.72
2017-10-06T01:32:24.012Z,5.43
2017-10-06T01:34:52.304Z,6.80
2017-10-06T01:37:19.859Z,6.00
2017-10-06T01:39:48.666Z,6.28
2017-10-06T01:42:17.283Z,6.65
2017-10-06T01:44:45.577Z,4.50
2017-10-06T01:47:13.722Z,6.15
2017-10-06T01:49:42.504Z,5.20
2017-10-06T01:52:11.383Z,5.35
2017-10-06T01:54:41.604Z,5.40
2017-10-06T01:57:10.070Z,5.85
2017-10-06T01:59:39.083Z,5.65
2017-10-06T02:02:08.261Z,5.15
2017-10-06T02:04:38.131Z,5.50
2017-10-06T02:07:06.906Z,6.20
2017-10-06T02:09:36.289Z,5.50
2017-10-06T02:12:05.137Z,5.60
2017-10-06T02:14:34.108Z,5.65
2017-10-06T02:17:02.424Z,4.53
2017-10-06T02:19:31.040Z,5.40
2017-10-06T02:21:58.629Z,4.20
2017-10-06T02:24:26.148Z,5.78
2017-10-06T02:26:53.656Z,5.35
2017-10-06T02:29:22.337Z,5.47
2017-10-06T02:31:50.364Z,4.70
2017-10-06T02:34:18.690Z,5.95
2017-10-06T02:36:47.337Z,5.47
2017-10-06T02:39:15.503Z,3.97
2017-10-06T02:41:44.547Z,4.40
2017-10-06T02:44:12.308Z,4.20
2017-10-06T02:46:40.964Z,4.30
2017-10-06T02:49:10.158Z,4.45
2017-10-06T02:51:38.645Z,4.20
2017-10-06T02:54:07.625Z,4.25
2017-10-06T02:56:35.964Z,4.75
2017-10-06T02:59:04.778Z,3.45
2017-10-06T03:01:33.765Z,3.28
2017-10-06T03:04:01.656Z,3.83
2017-10-06T03:06:30.550Z,5.03
2017-10-06T03:08:58.145Z,4.78
2017-10-06T03:11:25.971Z,4.05
2017-10-06T03:13:54.333Z,4.43
2017-10-06T03:16:22.629Z,4.25
2017-10-06T03:18:51.217Z,3.70
2017-10-06T03:21:20.411Z,4.78
2017-10-06T03:23:49.193Z,5.00
2017-10-06T03:26:18.051Z,4.85
2017-10-06T03:28:46.979Z,5.20
2017-10-06T03:31:16.294Z,5.07
2017-10-06T03:33:45.174Z,3.65
2017-10-06T03:36:13.241Z,4.53
2017-10-06T03:38:41.289Z,4.62
2017-10-06T03:41:09.653Z,3.87
2017-10-06T03:43:38.235Z,5.25
2017-10-06T03:46:07.086Z,6.55
2017-10-06T03:48:35.654Z,4.50
2017-10-06T03:51:05.469Z,4.90
2017-10-06T03:53:33.240Z,5.05
2017-10-06T03:56:00.764Z,6.00
2017-10-06T03:58:28.487Z,4.60
2017-10-06T04:00:56.617Z,6.25
2017-10-06T04:03:24.167Z,5.03
2017-10-06T04:05:51.712Z,6.55
2017-10-06T04:08:19.233Z,5.57
2017-10-06T04:10:46.761Z,5.25
2017-10-06T04:13:14.281Z,6.82
2017-10-06T04:15:41.800Z,6.20
2017-10-06T04:18:09.320Z,6.35
2017-10-06T04:20:36.875Z,6.80
2017-10-06T04:23:04.697Z,5.60
2017-10-06T04:25:32.224Z,5.97
2017-10-06T04:27:59.745Z,5.47
2017-10-06T04:30:27.259Z,5.70
2017-10-06T04:32:54.765Z,6.95
2017-10-06T04:35:23.886Z,6.00
2017-10-06T04:37:51.398Z,6.05
2017-10-06T04:40:19.673Z,5.60
2017-10-06T04:42:48.394Z,6.30
2017-10-06T04:45:15.911Z,6.47
2017-10-06T04:47:44.203Z,5.72
2017-10-06T04:50:12.512Z,6.12
2017-10-06T04:52:40.214Z,5.75
2017-10-06T04:55:08.554Z,7.00
2017-10-06T04:57:36.073Z,7.90
2017-10-06T05:00:04.360Z,5.93
2017-10-06T05:02:32.165Z,8.15
2017-10-06T05:04:59.786Z,6.85
2017-10-06T05:07:27.317Z,6.97
2017-10-06T05:09:54.835Z,7.55
2017-10-06T05:12:22.444Z,6.97
2017-10-06T05:14:50.740Z,7.15
2017-10-06T05:17:19.013Z,7.37
2017-10-06T05:19:47.318Z,7.20
2017-10-06T05:22:14.821Z,8.32
2017-10-06T05:24:42.405Z,6.95
2017-10-06T05:27:10.714Z,7.18
2017-10-06T05:29:38.239Z,7.93
2017-10-06T05:32:06.522Z,7.05
2017-10-06T05:34:35.034Z,6.60
2017-10-06T05:37:03.345Z,7.65
2017-10-06T05:39:31.752Z,7.95
2017-10-06T05:42:00.085Z,8.93
2017-10-06T05:44:27.610Z,7.55
2017-10-06T05:46:55.496Z,7.70
2017-10-06T05:49:23.290Z,8.00
2017-10-06T05:51:51.761Z,7.80
2017-10-06T05:54:19.607Z,7.95
2017-10-06T05:56:47.152Z,7.20
2017-10-06T05:59:15.443Z,7.82
2017-10-06T06:01:43.012Z,8.57
2017-10-06T06:04:10.542Z,8.30
2017-10-06T06:06:38.061Z,8.88
2017-10-06T06:09:05.584Z,9.88
2017-10-06T06:11:33.143Z,11.50
2017-10-06T06:14:00.680Z,10.73
2017-10-06T06:16:28.197Z,10.20
2017-10-06T06:18:56.556Z,8.63
2017-10-06T06:21:24.075Z,7.32
2017-10-06T06:23:51.937Z,9.23
2017-10-06T06:26:20.423Z,10.70
2017-10-06T06:28:49.474Z,11.68
2017-10-06T06:31:17.085Z,9.95
2017-10-06T06:33:45.288Z,6.68
2017-10-06T06:36:12.808Z,8.10
2017-10-06T06:38:40.983Z,8.43
2017-10-06T06:41:08.996Z,7.12
2017-10-06T06:43:36.696Z,7.70
2017-10-06T06:46:04.764Z,5.68
2017-10-06T06:48:33.133Z,6.65
2017-10-06T06:51:02.434Z,5.47
2017-10-06T06:53:30.561Z,6.30
2017-10-06T06:55:59.482Z,6.35
2017-10-06T06:58:28.756Z,6.80
2017-10-06T07:00:57.765Z,6.10
2017-10-06T07:03:27.060Z,6.18
2017-10-06T07:05:55.334Z,6.18
2017-10-06T07:08:23.109Z,6.00
2017-10-06T07:10:51.521Z,5.57
2017-10-06T07:13:19.852Z,6.00
2017-10-06T07:15:49.113Z,6.57
2017-10-06T07:18:18.908Z,7.18
2017-10-06T07:20:48.260Z,8.13
2017-10-06T07:23:17.385Z,6.95
2017-10-06T07:25:45.706Z,7.20
2017-10-06T07:28:14.651Z,6.95
2017-10-06T07:30:43.569Z,7.93
2017-10-06T07:33:12.212Z,7.60
2017-10-06T07:35:40.708Z,7.28
2017-10-06T07:38:09.333Z,8.52
2017-10-06T07:40:39.307Z,7.35
2017-10-06T07:43:09.376Z,6.68
2017-10-06T07:45:38.035Z,7.20
2017-10-06T07:48:08.216Z,7.37
2017-10-06T07:50:36.961Z,7.95
2017-10-06T07:53:05.965Z,7.10
2017-10-06T07:55:34.680Z,7.32
2017-10-06T07:58:04.135Z,6.65
2017-10-06T08:00:33.631Z,8.32
2017-10-06T08:03:02.194Z,7.70
2017-10-06T08:05:31.893Z,5.20
2017-10-06T08:08:00.985Z,5.00
2017-10-06T08:10:29.470Z,5.37
2017-10-06T08:12:59.018Z,5.55
2017-10-06T08:15:30.721Z,4.47
2017-10-06T08:17:59.944Z,5.12
2017-10-06T08:20:29.787Z,5.40
2017-10-06T08:22:58.559Z,4.33
2017-10-06T08:25:27.135Z,4.97
2017-10-06T08:27:55.406Z,4.43
2017-10-06T08:30:23.725Z,3.37
2017-10-06T08:32:52.345Z,4.20
2017-10-06T08:35:19.989Z,4.40
2017-10-06T08:37:48.688Z,4.40
2017-10-06T08:40:17.743Z,4.33
2017-10-06T08:42:47.097Z,4.00
2017-10-06T08:45:17.162Z,4.87
2017-10-06T08:47:47.796Z,4.80
2017-10-06T08:50:16.459Z,7.13
2017-10-06T08:52:44.753Z,5.90
2017-10-06T08:55:13.404Z,5.80
2017-10-06T08:57:43.502Z,5.47
2017-10-06T09:00:12.558Z,3.53
2017-10-06T09:02:41.348Z,3.40
2017-10-06T09:05:10.852Z,3.23
2017-10-06T09:07:39.576Z,3.40
2017-10-06T09:10:08.837Z,3.90
2017-10-06T09:12:37.873Z,3.60
2017-10-06T09:15:06.467Z,3.20
2017-10-06T09:17:34.100Z,3.50
2017-10-06T09:20:02.655Z,3.23
2017-10-06T09:22:30.190Z,3.27
2017-10-06T09:24:57.739Z,3.80
2017-10-06T09:27:25.869Z,3.60
2017-10-06T09:29:54.141Z,3.37
2017-10-06T09:32:22.161Z,3.57
2017-10-06T09:34:50.619Z,3.23
2017-10-06T09:37:19.348Z,3.30
2017-10-06T09:39:47.854Z,3.00
2017-10-06T09:42:16.588Z,2.40
2017-10-06T09:44:44.569Z,2.30
2017-10-06T09:47:14.944Z,2.67
2017-10-06T09:49:42.608Z,3.00
2017-10-06T09:52:10.121Z,2.40
2017-10-06T09:54:37.630Z,2.40
2017-10-06T09:57:05.173Z,2.53
2017-10-06T09:59:33.460Z,2.20
2017-10-06T10:02:01.727Z,2.60
2017-10-06T10:04:30.017Z,2.37
2017-10-06T10:06:57.539Z,2.80
2017-10-06T10:09:25.064Z,2.33
2017-10-06T10:11:52.593Z,2.50
2017-10-06T10:14:20.117Z,2.20
2017-10-06T10:16:47.644Z,2.77
2017-10-06T10:19:15.277Z,2.77
2017-10-06T10:21:44.882Z,2.30
2017-10-06T10:24:14.528Z,2.50
2017-10-06T10:26:42.889Z,2.70
2017-10-06T10:29:10.559Z,2.70
2017-10-06T10:31:38.083Z,2.60
2017-10-06T10:34:05.643Z,2.47
2017-10-06T10:36:33.918Z,2.83
2017-10-06T10:39:02.203Z,2.30
2017-10-06T10:41:29.723Z,2.30
2017-10-06T10:43:57.255Z,2.83
2017-10-06T10:46:24.767Z,2.90
2017-10-06T10:48:52.853Z,3.20
2017-10-06T10:51:20.380Z,2.50
2017-10-06T10:53:47.885Z,3.10
2017-10-06T10:56:16.309Z,3.70
2017-10-06T10:58:44.599Z,3.47
2017-10-06T11:01:12.145Z,3.43
2017-10-06T11:03:40.470Z,3.30
2017-10-06T11:06:07.984Z,3.63
2017-10-06T11:08:35.499Z,3.40
2017-10-06T11:11:03.058Z,3.90
2017-10-06T11:13:30.756Z,3.30
2017-10-06T11:15:58.922Z,3.73
2017-10-06T11:18:26.426Z,3.30
2017-10-06T11:20:54.833Z,3.50
2017-10-06T11:23:22.339Z,4.10
2017-10-06T11:25:51.505Z,3.70
2017-10-06T11:28:19.468Z,3.37
2017-10-06T11:30:48.066Z,3.30
2017-10-06T11:33:15.577Z,2.73
2017-10-06T11:35:43.125Z,2.90
2017-10-06T11:38:11.910Z,3.00
2017-10-06T11:40:40.947Z,2.80
2017-10-06T11:43:09.487Z,2.20
2017-10-06T11:45:38.037Z,2.97
2017-10-06T11:48:06.081Z,2.60
2017-10-06T11:50:33.652Z,2.30
2017-10-06T11:53:03.996Z,2.70
2017-10-06T11:55:32.096Z,3.07
2017-10-06T11:57:59.718Z,1.87
2017-10-06T12:00:27.272Z,1.70
2017-10-06T12:02:54.798Z,2.63
2017-10-06T12:05:22.320Z,2.80
2017-10-06T12:07:55.757Z,2.93
2017-10-06T12:10:24.280Z,3.00
2017-10-06T12:12:53.457Z,3.07
2017-10-06T12:15:21.503Z,2.80
2017-10-06T12:17:49.049Z,3.17
2017-10-06T12:20:17.324Z,3.53
2017-10-06T12:22:47.279Z,3.63
2017-10-06T12:25:19.600Z,2.87
2017-10-06T12:27:47.178Z,3.57
2017-10-06T12:30:16.418Z,3.57
2017-10-06T12:32:45.381Z,2.23
2017-10-06T12:35:13.148Z,2.00
2017-10-06T12:37:41.165Z,1.90
2017-10-06T12:40:09.520Z,2.17
2017-10-06T12:42:37.857Z,1.90
2017-10-06T12:45:06.190Z,2.60
2017-10-06T12:47:39.577Z,2.50
2017-10-06T12:50:08.048Z,2.20
2017-10-06T12:52:35.611Z,3.60
2017-10-06T12:55:04.076Z,2.70
2017-10-06T12:57:31.869Z,2.47
2017-10-06T12:59:59.583Z,3.43
2017-10-06T13:02:27.165Z,2.97
2017-10-06T13:04:55.086Z,2.40
2017-10-06T13:07:22.900Z,2.33
2017-10-06T13:09:51.607Z,2.80
2017-10-06T13:12:19.121Z,3.10
2017-10-06T13:14:47.349Z,2.13
2017-10-06T13:17:15.962Z,2.80
2017-10-06T13:19:43.477Z,2.50
2017-10-06T13:22:11.328Z,2.47
2017-10-06T13:24:38.890Z,2.87
2017-10-06T13:27:06.410Z,2.83
2017-10-06T13:29:35.304Z,2.37
2017-10-06T13:32:02.860Z,3.07
2017-10-06T13:34:30.356Z,2.37
2017-10-06T13:36:58.325Z,2.60
2017-10-06T13:39:25.948Z,3.30
2017-10-06T13:41:53.468Z,2.63
2017-10-06T13:44:21.342Z,3.63
2017-10-06T13:46:50.417Z,3.80
2017-10-06T13:49:18.304Z,3.03
2017-10-06T13:51:45.846Z,3.40
2017-10-06T13:54:13.918Z,2.30
2017-10-06T13:56:42.136Z,3.47
2017-10-06T13:59:09.753Z,2.53
2017-10-06T14:01:38.222Z,2.80
2017-10-06T14:04:05.874Z,2.80
2017-10-06T14:06:33.391Z,2.83
2017-10-06T14:09:00.889Z,3.57
2017-10-06T14:11:29.298Z,3.30
2017-10-06T14:13:56.899Z,4.17
2017-10-06T14:16:25.380Z,3.63
2017-10-06T14:18:53.703Z,3.47
2017-10-06T14:21:21.477Z,2.97
2017-10-06T14:23:49.096Z,2.90
2017-10-06T14:26:17.593Z,3.57
2017-10-06T14:28:45.287Z,3.50
2017-10-06T14:31:12.972Z,3.80
2017-10-06T14:33:40.683Z,4.07
2017-10-06T14:36:08.480Z,3.70
2017-10-06T14:38:36.897Z,3.90
2017-10-06T14:41:05.174Z,3.53
2017-10-06T14:43:33.443Z,3.27
2017-10-06T14:46:01.537Z,3.70
2017-10-06T14:48:29.651Z,3.23
2017-10-06T14:50:57.849Z,3.23
2017-10-06T14:53:25.714Z,2.87
2017-10-06T14:55:54.646Z,3.50
2017-10-06T14:58:23.097Z,3.47
2017-10-06T15:00:51.010Z,3.40
2017-10-06T15:03:18.805Z,3.13
2017-10-06T15:05:46.775Z,3.60
2017-10-06T15:08:14.980Z,4.03
2017-10-06T15:10:42.972Z,3.57
2017-10-06T15:13:11.177Z,3.70
2017-10-06T15:15:39.082Z,3.57
2017-10-06T15:18:06.769Z,3.67
2017-10-06T15:20:35.309Z,3.50
2017-10-06T15:23:03.069Z,3.37
2017-10-06T15:25:31.552Z,2.70
2017-10-06T15:27:59.731Z,3.47
2017-10-06T15:30:28.635Z,2.83
2017-10-06T15:32:56.812Z,2.73
2017-10-06T15:35:24.557Z,2.80
2017-10-06T15:37:53.145Z,3.33
2017-10-06T15:40:20.933Z,2.53
2017-10-06T15:42:48.875Z,3.13
2017-10-06T15:45:17.009Z,3.70
2017-10-06T15:47:45.200Z,2.70
2017-10-06T15:50:14.016Z,2.87
2017-10-06T15:52:42.907Z,3.17
2017-10-06T15:55:11.616Z,2.43
2017-10-06T15:57:39.382Z,2.73
2017-10-06T16:00:08.402Z,3.30
2017-10-06T16:02:36.264Z,2.87
2017-10-06T16:05:04.296Z,2.87
2017-10-06T16:07:32.467Z,3.33
2017-10-06T16:10:01.663Z,2.57
2017-10-06T16:12:30.559Z,3.57
2017-10-06T16:14:58.570Z,4.30
2017-10-06T16:17:26.551Z,2.87
2017-10-06T16:19:54.274Z,3.27
2017-10-06T16:22:23.273Z,2.80
2017-10-06T16:24:51.579Z,3.50
2017-10-06T16:27:20.419Z,3.10
2017-10-06T16:29:48.512Z,2.50
2017-10-06T16:32:16.603Z,4.13
2017-10-06T16:34:45.457Z,2.73
2017-10-06T16:37:13.473Z,3.10
2017-10-06T16:39:41.509Z,2.97
2017-10-06T16:42:09.914Z,3.80
2017-10-06T16:44:38.465Z,2.60
2017-10-06T16:47:06.653Z,4.17
2017-10-06T16:49:35.019Z,3.57
2017-10-06T16:52:03.711Z,3.60
2017-10-06T16:54:32.687Z,2.90
2017-10-06T16:57:00.628Z,3.60
2017-10-06T16:59:29.698Z,3.57
2017-10-06T17:01:58.442Z,17.47
2017-10-06T17:04:26.230Z,5.90
2017-10-06T17:06:54.182Z,3.83
2017-10-06T17:09:22.283Z,5.10
2017-10-06T17:11:50.987Z,5.00
2017-10-06T17:14:19.115Z,4.37
2017-10-06T17:16:47.575Z,3.30
2017-10-06T17:19:16.236Z,4.87
2017-10-06T17:21:45.197Z,4.10
2017-10-06T17:24:13.592Z,4.40
2017-10-06T17:26:42.596Z,6.07
2017-10-06T17:29:10.272Z,3.57
2017-10-06T17:31:38.100Z,5.17
2017-10-06T17:34:06.090Z,3.87
2017-10-06T17:36:33.806Z,3.60
2017-10-06T17:39:01.384Z,3.60
2017-10-06T17:41:29.039Z,4.33
2017-10-06T17:43:56.698Z,9.57
2017-10-06T17:46:24.393Z,4.77
2017-10-06T17:48:52.896Z,6.40
2017-10-06T17:51:21.732Z,14.93
2017-10-06T17:53:50.147Z,20.20
2017-10-06T17:56:17.786Z,4.13
2017-10-06T17:58:45.488Z,3.70
2017-10-06T18:01:13.232Z,3.37
2017-10-06T18:06:14.494Z,4.90
2017-10-06T18:08:43.320Z,3.53
2017-10-06T18:11:11.867Z,4.97
2017-10-06T18:13:39.706Z,4.53
2017-10-06T18:16:08.299Z,11.90
2017-10-06T18:18:36.817Z,7.07
2017-10-06T18:21:04.425Z,5.20
2017-10-06T18:23:32.523Z,16.60
2017-10-06T18:26:00.223Z,6.23
2017-10-06T18:28:27.793Z,4.90
2017-10-06T18:30:55.337Z,6.10
2017-10-06T18:33:24.874Z,5.50
2017-10-06T18:35:52.566Z,5.83
2017-10-06T18:38:20.215Z,5.17
2017-10-06T18:40:47.838Z,6.20
2017-10-06T18:43:15.500Z,6.90
2017-10-06T18:45:43.616Z,5.60
2017-10-06T18:48:12.229Z,5.78
2017-10-06T18:50:40.016Z,5.70
2017-10-06T18:53:07.904Z,7.20
2017-10-06T18:55:37.076Z,6.25
2017-10-06T18:58:04.723Z,5.50
2017-10-06T19:00:33.172Z,6.50
2017-10-06T19:03:00.730Z,6.85
2017-10-06T19:05:28.525Z,5.95
2017-10-06T19:07:56.443Z,5.80
2017-10-06T19:10:26.467Z,6.40
2017-10-06T19:12:54.324Z,6.20
2017-10-06T19:15:21.989Z,5.63
2017-10-06T19:17:49.682Z,5.05
2017-10-06T19:20:18.066Z,5.47
2017-10-06T19:22:46.459Z,6.27
2017-10-06T19:25:14.965Z,10.03
2017-10-06T19:27:43.705Z,7.30
2017-10-06T19:30:12.192Z,6.83
2017-10-06T19:32:39.992Z,11.00
2017-10-06T19:35:07.588Z,11.10
2017-10-06T19:37:35.305Z,5.67
2017-10-06T19:40:02.953Z,6.60
2017-10-06T19:42:31.191Z,12.27
2017-10-06T19:44:58.787Z,5.40
2017-10-06T19:47:26.380Z,5.57
2017-10-06T19:49:54.750Z,5.50
2017-10-06T19:52:22.508Z,5.80
2017-10-06T19:54:50.838Z,6.50
2017-10-06T19:57:18.418Z,6.40
2017-10-06T19:59:45.971Z,6.13
2017-10-06T20:02:13.766Z,5.93
2017-10-06T20:04:43.011Z,5.18
2017-10-06T20:07:10.554Z,5.90
2017-10-06T20:09:38.080Z,7.80
2017-10-06T20:12:06.755Z,6.50
2017-10-06T20:14:34.466Z,5.20
2017-10-06T20:17:01.994Z,5.50
2017-10-06T20:19:30.299Z,6.20
2017-10-06T20:21:59.190Z,8.13
2017-10-06T20:24:26.705Z,5.80
2017-10-06T20:26:54.227Z,6.12
2017-10-06T20:29:21.761Z,4.50
2017-10-06T20:31:49.330Z,4.50
2017-10-06T20:34:17.179Z,5.33
2017-10-06T20:36:44.720Z,4.87
2017-10-06T20:39:12.274Z,4.83
2017-10-06T20:41:39.838Z,6.43
2017-10-06T20:44:07.393Z,5.17
2017-10-06T20:46:34.947Z,4.37
2017-10-06T20:49:02.482Z,5.40
2017-10-06T20:51:30.044Z,4.68
2017-10-06T20:53:57.576Z,5.20
2017-10-06T20:56:25.373Z,5.28
2017-10-06T20:58:53.108Z,4.03
2017-10-06T21:01:20.879Z,4.72
2017-10-06T21:03:48.750Z,4.80
2017-10-06T21:06:16.685Z,4.57
2017-10-06T21:08:44.245Z,4.10
2017-10-06T21:11:11.788Z,3.97
2017-10-06T21:13:39.336Z,5.30
2017-10-06T21:16:06.912Z,4.75
2017-10-06T21:18:35.213Z,4.57
2017-10-06T21:21:02.766Z,4.15
2017-10-06T21:23:30.343Z,4.95
2017-10-06T21:25:57.880Z,5.30
2017-10-06T21:28:25.469Z,4.65
2017-10-06T21:30:53.627Z,4.70
2017-10-06T21:33:21.228Z,5.10
2017-10-06T21:35:48.782Z,4.30
2017-10-06T21:38:16.502Z,4.60
2017-10-06T21:40:44.454Z,6.50
2017-10-06T21:43:12.764Z,3.80
2017-10-06T21:45:40.324Z,4.43
2017-10-06T21:48:07.851Z,5.00
2017-10-06T21:50:36.141Z,4.62
2017-10-06T21:53:04.649Z,4.50
2017-10-06T21:55:32.158Z,5.00
2017-10-06T21:57:59.685Z,4.75
2017-10-06T22:00:27.256Z,4.85
2017-10-06T22:02:54.796Z,6.80
2017-10-06T22:05:22.362Z,4.60
2017-10-06T22:07:49.877Z,4.37
2017-10-06T22:10:18.252Z,3.92
2017-10-06T22:12:46.390Z,4.00
2017-10-06T22:15:14.201Z,3.95
2017-10-06T22:17:41.723Z,4.40
2017-10-06T22:20:09.830Z,4.40
2017-10-06T22:22:37.642Z,5.17
2017-10-06T22:25:05.758Z,4.93
2017-10-06T22:27:34.091Z,5.53
2017-10-06T22:30:01.621Z,4.75
2017-10-06T22:32:29.148Z,4.03
2017-10-06T22:34:57.457Z,4.78
2017-10-06T22:37:25.058Z,4.72
2017-10-06T22:39:52.607Z,5.05
2017-10-06T22:42:20.146Z,4.37
2017-10-06T22:44:47.833Z,4.78
2017-10-06T22:47:16.042Z,5.18
2017-10-06T22:49:43.859Z,3.92
2017-10-06T22:52:11.771Z,4.03
2017-10-06T22:54:40.057Z,4.35
2017-10-06T22:57:08.327Z,4.90
2017-10-06T22:59:35.826Z,4.05
2017-10-06T23:02:03.367Z,4.55
2017-10-06T23:04:30.880Z,5.10
2017-10-06T23:06:58.395Z,3.85
2017-10-06T23:09:25.964Z,4.32
2017-10-06T23:11:53.477Z,4.55
2017-10-06T23:14:20.987Z,4.22
2017-10-06T23:16:48.584Z,3.97
2017-10-06T23:19:16.094Z,4.78
2017-10-06T23:21:43.623Z,4.12
2017-10-06T23:24:12.276Z,4.97
2017-10-06T23:26:40.568Z,3.78
2017-10-06T23:29:08.086Z,4.15
2017-10-06T23:31:35.634Z,3.70
2017-10-06T23:34:03.157Z,3.90
2017-10-06T23:36:31.407Z,3.33
2017-10-06T23:38:58.933Z,3.33
2017-10-06T23:41:26.436Z,3.60
2017-10-06T23:43:53.975Z,4.12
2017-10-06T23:46:21.494Z,5.03
2017-10-06T23:48:49.017Z,4.45
2017-10-06T23:51:17.346Z,5.25
2017-10-06T23:53:45.320Z,4.97
2017-10-06T23:56:12.853Z,4.80
2017-10-06T23:58:40.708Z,4.80
